Ana Sayfa
METAR-TAF:

METAR-TAF

Havaalanları :

El Ariş, Mısır

Enlem: 31-05N, Boylam: 033-49E, yükseklik: 31 m

Güncel hava durumu gözlemi

Rapor saat 20:00 UTC de 11 saat ve 44 dakika önce yapıldı.
Sakin rüzgar
Sıcaklık 25°C
Nem 69%
Basınç 1008 hPa
Görüş mesafesi 10 km veya daha fazla
1500 m altında bulut yok ve kümülonimbus yok

METAR: HEAR 242000Z 00000KT CAVOK 25/19 Q1008 NOSIG

Saat: 09:44 (07:44 UTC)

Tahmin

Rapor saat 05:00 UTC de 2 saat ve 44 dakika önce yapıldı.
Ayın 25'si saat 06 UTC'den ayın 26'si saat 12 UTC'ye kadar geçerli Tahmin
Rüzgar kuzey/kuzeybatıdan 10 kt
Görüş mesafesi 10 km veya daha fazla
2500 ft yükseklikte az bulutlu
Dönüşüyor
ayın 25'si saat 20 UTC'den ayın 25'si saat 22 UTC'ye kadar
Rüzgar değişken yönden 3 kt

TAF: HEAR 250500Z 2506/2612 34010KT 9999 FEW025 BECMG 2520/2522 VRB03KT

4.000'den fazla havaalanı için hava durumu gözlemleri ve tahminleri (METAR ve TAF raporları).

Kullanılabilir istasyonlar harita üzerinde sarı ve kırmızı noktalarla gösterilir.

İstasyonun adını görmek için fareyi noktanın üzerinde gezdirin.

Sonrasında hava gözlem ve tahminlerini görmek için tıklayın.

Haritayı değiştirmek için: yaklaştırmak için siyah artı işaretli yeşil düğmeye ve uzaklaştırmak için de eksi işaretli düğmeye hızla tıklayın; bitişik haritalar için yeşil okları kullanın.


METAR-TAF: